Main page
METAR-TAF:

METAR-TAF

Airports :

Castellón–Costa Azahar Airport

Castellón de la Plana, Spain

latitude: 40-12-35N, longitude: 0-04-11E, elevation: 360 m

Current weather observation

The report was made 29 minutes ago, at 07:00 UTC
Wind 1 kt from variable directions
Temperature 15°C
Humidity 94%
Pressure 1019 hPa
Visibility: 6000 m
Overcast at a height of 800 ft

METAR: LECH 080700Z AUTO VRB01KT 6000 OVC008 15/14 Q1019

Time: 09:29 (07:29 UTC)


TAF: missing

Weather observations and forecasts of more than 4000 airports (METAR and TAF reports).

The available stations are represented by yellow and red dots on the map.

Hover mouse over dot to see the name of the station.

Then click to see weather observations and forecasts.

To change the map : click on the green buttons with a black cross to zoom in, on the green button with a dash to zoom out, or on the green arrows for adjacent maps.


METAR-TAF: